Bacone, Oklahoma
Current Conditions -  °F | °C
As of 6:53 PM on Wednesday 17 Dec 2014 (Local Time) from KMKO Reporting Station
Light Rain Light Rain  
Wind Chill: 28°   Ceiling: 7000
Heat Index: 35°   Visibility: 6mi
Dew Point: 33°   Wind: 9mph
Humidity: 92%   Direction: 130°SE
Pressure: 30.22"   Gusts: NA
Location:  35.6818°N, 95.3578°W
Report Text: KMKO 180053Z AUTO 13008KT 6SM -RA BR FEW009 BKN070 OVC090 02/01 A3022 RMK AO2 SLP236 P0018 T00170006
Loading
Personal Weather Stations






























Interactive Weather Map New forecast layout! Learn more

10-Day Weather Forecast

Advertisements
Track Severe Weather on mobile